createdAt,value
2023-03-17T00:01:54.355Z,65.61
2023-03-17T00:04:23.746Z,65.40
2023-03-17T00:06:51.451Z,65.74
2023-03-17T00:09:19.788Z,65.19
2023-03-17T00:11:46.951Z,65.17
2023-03-17T00:14:14.557Z,65.07
2023-03-17T00:16:43.521Z,64.60
2023-03-17T00:19:17.935Z,64.63
2023-03-17T00:21:48.315Z,64.33
2023-03-17T00:24:15.685Z,64.15
2023-03-17T00:26:43.383Z,64.11
2023-03-17T00:29:10.721Z,64.33
2023-03-17T00:31:38.368Z,63.91
2023-03-17T00:34:06.292Z,63.67
2023-03-17T00:36:34.084Z,63.45
2023-03-17T00:39:03.484Z,63.23
2023-03-17T00:41:31.280Z,62.78
2023-03-17T00:43:59.545Z,62.73
2023-03-17T00:46:35.765Z,61.97
2023-03-17T00:51:44.922Z,61.09
2023-03-17T00:54:12.851Z,60.52
2023-03-17T00:56:40.354Z,60.33
2023-03-17T00:59:29.976Z,59.96
2023-03-17T01:01:57.606Z,59.32
2023-03-17T01:04:25.084Z,58.85
2023-03-17T01:06:52.792Z,58.10
2023-03-17T01:09:20.530Z,57.80
2023-03-17T01:11:48.990Z,56.89
2023-03-17T01:14:16.811Z,56.39
2023-03-17T01:16:44.444Z,53.93
2023-03-17T01:19:12.772Z,49.67
2023-03-17T01:21:40.791Z,45.98
2023-03-17T01:24:09.277Z,43.10
2023-03-17T01:26:36.997Z,42.00
2023-03-17T01:29:06.045Z,39.71
2023-03-17T01:31:33.523Z,38.03
2023-03-17T01:34:00.843Z,36.10
2023-03-17T01:36:27.925Z,34.86
2023-03-17T01:38:55.029Z,34.18
2023-03-17T01:41:22.463Z,33.60
2023-03-17T01:43:49.846Z,33.33
2023-03-17T01:46:22.747Z,32.71
2023-03-17T01:49:30.373Z,32.39
2023-03-17T01:52:10.987Z,33.19
2023-03-17T01:54:56.351Z,33.16
2023-03-17T01:57:38.059Z,32.80
2023-03-17T02:00:17.829Z,33.46
2023-03-17T02:02:49.950Z,33.33
2023-03-17T02:05:20.604Z,33.62
2023-03-17T02:07:48.066Z,33.16
2023-03-17T02:10:17.326Z,33.70
2023-03-17T02:12:44.765Z,32.87
2023-03-17T02:15:11.830Z,33.06
2023-03-17T02:17:39.268Z,33.16
2023-03-17T02:20:32.628Z,32.23
2023-03-17T02:23:00.224Z,32.03
2023-03-17T02:25:28.711Z,31.47
2023-03-17T02:27:59.960Z,31.27
2023-03-17T02:30:27.148Z,31.27
2023-03-17T02:32:54.396Z,30.57
2023-03-17T02:35:23.524Z,30.50
2023-03-17T02:37:50.663Z,30.36
2023-03-17T02:40:18.358Z,30.82
2023-03-17T02:42:46.345Z,31.08
2023-03-17T02:45:14.199Z,31.23
2023-03-17T02:47:41.889Z,30.83
2023-03-17T02:50:10.401Z,30.47
2023-03-17T02:52:37.799Z,30.28
2023-03-17T02:55:05.739Z,30.38
2023-03-17T02:57:33.068Z,29.88
2023-03-17T03:00:00.624Z,29.91
2023-03-17T03:02:27.702Z,29.00
2023-03-17T03:04:56.021Z,29.00
2023-03-17T03:07:23.521Z,28.76
2023-03-17T03:09:51.162Z,28.90
2023-03-17T03:12:18.355Z,29.09
2023-03-17T03:14:45.755Z,28.66
2023-03-17T03:17:12.905Z,29.09
2023-03-17T03:19:40.346Z,29.28
2023-03-17T03:22:08.372Z,29.45
2023-03-17T03:24:35.947Z,29.65
2023-03-17T03:27:03.342Z,29.70
2023-03-17T03:29:30.933Z,29.88
2023-03-17T03:31:58.051Z,29.96
2023-03-17T03:34:25.423Z,29.39
2023-03-17T03:36:52.948Z,29.83
2023-03-17T03:39:20.109Z,29.89
2023-03-17T03:41:47.328Z,29.45
2023-03-17T03:44:14.580Z,29.91
2023-03-17T03:46:41.969Z,29.52
2023-03-17T03:49:09.378Z,29.53
2023-03-17T03:51:36.297Z,29.22
2023-03-17T03:54:03.706Z,28.74
2023-03-17T03:56:30.902Z,29.80
2023-03-17T03:58:58.218Z,29.88
2023-03-17T04:01:25.555Z,29.24
2023-03-17T04:03:53.057Z,28.91
2023-03-17T04:06:20.385Z,29.01
2023-03-17T04:08:47.808Z,29.13
2023-03-17T04:11:14.939Z,29.65
2023-03-17T04:13:42.342Z,29.34
2023-03-17T04:16:09.820Z,28.96
2023-03-17T04:18:37.540Z,28.69
2023-03-17T04:21:05.454Z,29.36
2023-03-17T04:23:36.021Z,29.30
2023-03-17T04:26:04.327Z,29.34
2023-03-17T04:28:31.430Z,29.79
2023-03-17T04:30:59.127Z,30.09
2023-03-17T04:33:26.375Z,30.32
2023-03-17T04:35:53.645Z,30.15
2023-03-17T04:38:21.343Z,30.63
2023-03-17T04:40:49.744Z,30.68
2023-03-17T04:43:18.108Z,31.23
2023-03-17T04:45:45.484Z,31.37
2023-03-17T04:48:12.724Z,31.76
2023-03-17T04:50:40.076Z,31.70
2023-03-17T04:53:07.555Z,32.02
2023-03-17T04:55:35.720Z,31.89
2023-03-17T04:58:02.881Z,31.70
2023-03-17T05:00:30.539Z,32.23
2023-03-17T05:02:57.972Z,31.84
2023-03-17T05:05:25.095Z,32.28
2023-03-17T05:07:52.265Z,32.74
2023-03-17T05:10:20.145Z,33.05
2023-03-17T05:12:47.490Z,32.99
2023-03-17T05:15:15.024Z,32.97
2023-03-17T05:17:42.434Z,33.09
2023-03-17T05:20:10.480Z,33.00
2023-03-17T05:22:37.893Z,32.82
2023-03-17T05:25:06.535Z,32.82
2023-03-17T05:27:34.081Z,32.60
2023-03-17T05:30:02.362Z,33.17
2023-03-17T05:32:30.036Z,33.39
2023-03-17T05:34:57.913Z,34.10
2023-03-17T05:37:25.480Z,33.65
2023-03-17T05:39:53.804Z,33.89
2023-03-17T05:42:21.111Z,34.27
2023-03-17T05:44:48.526Z,34.75
2023-03-17T05:47:16.298Z,34.68
2023-03-17T05:49:43.395Z,35.41
2023-03-17T05:52:10.630Z,35.27
2023-03-17T05:54:37.858Z,35.32
2023-03-17T05:57:05.352Z,35.08
2023-03-17T05:59:33.138Z,35.51
2023-03-17T06:02:00.247Z,35.70
2023-03-17T06:04:27.500Z,35.48
2023-03-17T06:06:54.831Z,35.22
2023-03-17T06:09:22.478Z,35.07
2023-03-17T06:11:49.940Z,35.07
2023-03-17T06:14:18.077Z,35.27
2023-03-17T06:16:45.251Z,34.90
2023-03-17T06:19:12.911Z,35.39
2023-03-17T06:21:40.142Z,35.52
2023-03-17T06:24:07.674Z,35.39
2023-03-17T06:26:35.028Z,35.64
2023-03-17T06:29:04.862Z,35.13
2023-03-17T06:31:32.323Z,34.94
2023-03-17T06:34:00.385Z,34.55
2023-03-17T06:36:27.660Z,34.08
2023-03-17T06:38:55.081Z,33.78
2023-03-17T06:41:22.163Z,33.97
2023-03-17T06:43:49.615Z,34.10
2023-03-17T06:46:16.848Z,33.77
2023-03-17T06:48:44.305Z,34.17
2023-03-17T06:51:11.736Z,34.70
2023-03-17T06:53:39.080Z,33.85
2023-03-17T06:56:07.476Z,33.65
2023-03-17T06:58:35.476Z,33.51
2023-03-17T07:01:03.938Z,33.36
2023-03-17T07:03:32.400Z,33.70
2023-03-17T07:06:00.485Z,33.18
2023-03-17T07:08:30.498Z,32.55
2023-03-17T07:10:58.851Z,33.16
2023-03-17T07:13:27.078Z,33.09
2023-03-17T07:15:55.504Z,32.43
2023-03-17T07:18:22.613Z,32.31
2023-03-17T07:20:50.375Z,32.49
2023-03-17T07:23:20.416Z,32.27
2023-03-17T07:25:47.802Z,31.80
2023-03-17T07:28:15.895Z,31.82
2023-03-17T07:30:46.864Z,31.70
2023-03-17T07:33:14.768Z,31.92
2023-03-17T07:35:43.376Z,32.26
2023-03-17T07:38:11.763Z,31.41
2023-03-17T07:40:39.224Z,31.61
2023-03-17T07:43:06.341Z,31.47
2023-03-17T07:45:35.718Z,30.90
2023-03-17T07:48:04.916Z,31.60
2023-03-17T07:50:33.403Z,32.08
2023-03-17T07:53:01.215Z,32.16
2023-03-17T07:55:32.545Z,32.21
2023-03-17T07:58:00.339Z,33.10
2023-03-17T08:00:29.115Z,33.16
2023-03-17T08:03:09.419Z,33.46
2023-03-17T08:05:37.754Z,34.38
2023-03-17T08:08:06.300Z,34.08
2023-03-17T08:10:34.119Z,34.74
2023-03-17T08:13:01.639Z,34.99
2023-03-17T08:15:30.587Z,35.18
2023-03-17T08:17:58.020Z,34.40
2023-03-17T08:20:25.215Z,34.28
2023-03-17T08:22:52.697Z,34.24
2023-03-17T08:25:20.060Z,33.65
2023-03-17T08:27:47.488Z,33.88
2023-03-17T08:30:16.061Z,34.02
2023-03-17T08:32:43.893Z,34.27
2023-03-17T08:35:15.733Z,34.11
2023-03-17T08:37:44.047Z,34.37
2023-03-17T08:40:12.489Z,33.92
2023-03-17T08:42:39.975Z,33.85
2023-03-17T08:45:07.634Z,34.42
2023-03-17T08:47:34.912Z,34.26
2023-03-17T08:50:02.497Z,34.52
2023-03-17T08:52:29.707Z,34.55
2023-03-17T08:54:57.483Z,34.98
2023-03-17T08:57:24.986Z,35.08
2023-03-17T08:59:52.401Z,35.07
2023-03-17T09:02:20.109Z,33.99
2023-03-17T09:04:47.900Z,34.56
2023-03-17T09:07:15.201Z,34.58
2023-03-17T09:09:42.315Z,34.71
2023-03-17T09:12:09.788Z,34.21
2023-03-17T09:14:43.362Z,34.35
2023-03-17T09:17:13.663Z,34.44
2023-03-17T09:19:41.340Z,33.77
2023-03-17T09:22:13.212Z,34.63
2023-03-17T09:24:40.850Z,34.65
2023-03-17T09:27:08.344Z,34.76
2023-03-17T09:29:36.011Z,35.05
2023-03-17T09:32:03.150Z,34.80
2023-03-17T09:34:30.640Z,34.25
2023-03-17T09:36:59.531Z,34.45
2023-03-17T09:39:27.291Z,34.20
2023-03-17T09:42:19.517Z,34.43
2023-03-17T09:45:18.817Z,34.67
2023-03-17T09:48:04.896Z,34.54
2023-03-17T09:50:34.558Z,35.02
2023-03-17T09:53:03.972Z,35.47
2023-03-17T09:55:32.382Z,34.46
2023-03-17T09:58:00.765Z,34.83
2023-03-17T10:00:29.794Z,34.50
2023-03-17T10:02:57.984Z,34.94
2023-03-17T10:05:29.954Z,34.91
2023-03-17T10:08:28.900Z,34.69
2023-03-17T10:10:57.038Z,35.31
2023-03-17T10:13:42.538Z,35.27
2023-03-17T10:16:15.825Z,35.51
2023-03-17T10:18:56.886Z,35.41
2023-03-17T10:21:29.343Z,35.84
2023-03-17T10:23:58.098Z,36.13
2023-03-17T10:26:31.600Z,35.80
2023-03-17T10:29:00.092Z,36.29
2023-03-17T10:31:35.379Z,36.18
2023-03-17T10:34:33.010Z,36.34
2023-03-17T10:37:03.067Z,36.55
2023-03-17T10:39:32.713Z,36.58
2023-03-17T10:42:08.986Z,37.02
2023-03-17T10:44:46.547Z,37.27
2023-03-17T10:47:24.277Z,36.95
2023-03-17T10:49:52.273Z,37.33
2023-03-17T10:52:27.604Z,37.45
2023-03-17T10:54:54.760Z,37.26
2023-03-17T10:57:22.765Z,36.93
2023-03-17T10:59:54.111Z,36.97
2023-03-17T11:02:24.417Z,37.33
2023-03-17T11:04:55.466Z,37.35
2023-03-17T11:07:35.523Z,37.65
2023-03-17T11:10:03.962Z,37.84
2023-03-17T11:12:37.973Z,37.05
2023-03-17T11:15:18.598Z,37.40
2023-03-17T11:17:59.438Z,37.68
2023-03-17T11:20:49.134Z,37.69
2023-03-17T11:23:28.201Z,37.67
2023-03-17T11:26:08.154Z,37.77
2023-03-17T11:28:38.876Z,37.59
2023-03-17T11:31:07.620Z,38.23
2023-03-17T11:33:58.191Z,38.65
2023-03-17T11:36:54.034Z,38.99
2023-03-17T11:39:48.261Z,39.15
2023-03-17T11:42:23.398Z,38.97
2023-03-17T11:45:24.450Z,39.38
2023-03-17T11:48:25.378Z,40.33
2023-03-17T11:51:27.621Z,40.91
2023-03-17T11:54:03.324Z,41.41
2023-03-17T11:56:46.953Z,41.78
2023-03-17T11:59:25.817Z,41.75
2023-03-17T12:02:31.540Z,41.87
2023-03-17T12:05:02.521Z,42.49
2023-03-17T12:07:50.375Z,42.34
2023-03-17T12:10:24.096Z,42.64
2023-03-17T12:13:12.834Z,43.16
2023-03-17T12:15:44.052Z,43.51
2023-03-17T12:18:24.930Z,43.16
2023-03-17T12:21:04.232Z,42.76
2023-03-17T12:23:49.182Z,43.45
2023-03-17T12:26:26.959Z,43.35
2023-03-17T12:29:04.727Z,43.79
2023-03-17T12:31:33.501Z,43.73
2023-03-17T12:34:06.397Z,43.86
2023-03-17T12:36:35.003Z,44.23
2023-03-17T12:39:06.716Z,43.69
2023-03-17T12:41:49.755Z,44.34
2023-03-17T12:44:27.681Z,43.89
2023-03-17T12:47:13.076Z,43.54
2023-03-17T12:49:45.020Z,43.99
2023-03-17T12:52:40.574Z,43.76
2023-03-17T12:55:15.843Z,44.31
2023-03-17T12:57:47.205Z,44.32
2023-03-17T13:00:22.810Z,44.96
2023-03-17T13:02:53.154Z,44.74
2023-03-17T13:05:30.055Z,44.84
2023-03-17T13:07:59.738Z,44.91
2023-03-17T13:10:43.682Z,44.86
2023-03-17T13:13:15.052Z,45.23
2023-03-17T13:15:42.652Z,45.82
2023-03-17T13:18:15.727Z,45.39
2023-03-17T13:20:45.862Z,45.81
2023-03-17T13:23:15.135Z,46.35
2023-03-17T13:25:43.805Z,46.70
2023-03-17T13:28:13.836Z,46.92
2023-03-17T13:30:56.908Z,47.07
2023-03-17T13:33:30.786Z,47.17
2023-03-17T13:36:07.589Z,47.25
2023-03-17T13:38:41.891Z,47.59
2023-03-17T13:41:37.877Z,48.25
2023-03-17T13:44:26.365Z,47.95
2023-03-17T13:46:54.613Z,48.29
2023-03-17T13:49:29.662Z,48.48
2023-03-17T13:52:17.193Z,48.93
2023-03-17T13:54:49.360Z,49.28
2023-03-17T13:57:30.719Z,49.36
2023-03-17T14:00:01.520Z,49.36
2023-03-17T14:02:33.216Z,49.34
2023-03-17T14:05:20.827Z,48.90
2023-03-17T14:08:19.872Z,48.09
2023-03-17T14:10:56.522Z,47.77
2023-03-17T14:13:24.604Z,47.09
2023-03-17T14:16:11.998Z,47.31
2023-03-17T14:18:40.219Z,46.92
2023-03-17T14:21:11.643Z,47.03
2023-03-17T14:23:38.859Z,47.06
2023-03-17T14:26:07.592Z,46.85
2023-03-17T14:28:35.354Z,47.05
2023-03-17T14:31:05.228Z,46.90
2023-03-17T14:33:34.372Z,46.96
2023-03-17T14:36:02.185Z,46.77
2023-03-17T14:38:31.378Z,47.06
2023-03-17T14:41:16.581Z,46.93
2023-03-17T14:43:44.064Z,46.79
2023-03-17T14:46:24.413Z,46.61
2023-03-17T14:49:02.731Z,46.89
2023-03-17T14:51:37.183Z,46.63
2023-03-17T14:54:11.674Z,46.84
2023-03-17T14:56:41.438Z,46.85
2023-03-17T14:59:29.826Z,47.77
2023-03-17T15:01:58.959Z,47.90
2023-03-17T15:04:31.324Z,48.18
2023-03-17T15:07:01.018Z,47.86
2023-03-17T15:09:31.220Z,47.40
2023-03-17T15:12:06.975Z,48.24
2023-03-17T15:14:35.412Z,48.07
2023-03-17T15:17:04.046Z,48.59
2023-03-17T15:19:41.011Z,49.03
2023-03-17T15:22:36.247Z,49.26
2023-03-17T15:25:16.737Z,49.82
2023-03-17T15:27:44.272Z,49.88
2023-03-17T15:30:12.228Z,49.71
2023-03-17T15:32:40.583Z,49.97
2023-03-17T15:35:08.813Z,49.87
2023-03-17T15:37:36.071Z,50.15
2023-03-17T15:40:05.183Z,50.21
2023-03-17T15:42:34.220Z,50.35
2023-03-17T15:45:02.461Z,50.41
2023-03-17T15:47:31.893Z,50.56
2023-03-17T15:50:01.964Z,50.95
2023-03-17T15:52:29.727Z,50.83
2023-03-17T15:54:59.316Z,50.97
2023-03-17T15:57:27.397Z,51.03
2023-03-17T15:59:54.942Z,51.25
2023-03-17T16:02:31.657Z,51.60
2023-03-17T16:05:02.785Z,51.73
2023-03-17T16:07:31.272Z,52.23
2023-03-17T16:09:58.336Z,52.35
2023-03-17T16:12:25.762Z,52.76
2023-03-17T16:14:53.527Z,52.29
2023-03-17T16:17:26.692Z,52.67
2023-03-17T16:19:57.036Z,53.06
2023-03-17T16:22:37.317Z,52.51
2023-03-17T16:25:07.615Z,52.75
2023-03-17T16:27:34.959Z,52.82
2023-03-17T16:30:02.489Z,53.01
2023-03-17T16:32:30.238Z,52.91
2023-03-17T16:34:57.727Z,53.26
2023-03-17T16:37:25.087Z,53.53
2023-03-17T16:39:52.894Z,53.70
2023-03-17T16:42:23.385Z,54.10
2023-03-17T16:44:51.287Z,53.98
2023-03-17T16:47:18.455Z,54.40
2023-03-17T16:49:46.073Z,54.53
2023-03-17T16:52:13.251Z,54.40
2023-03-17T16:54:40.890Z,54.70
2023-03-17T16:57:10.746Z,54.33
2023-03-17T16:59:38.213Z,54.68
2023-03-17T17:02:14.121Z,54.71
2023-03-17T17:04:41.857Z,55.19
2023-03-17T17:07:09.778Z,55.42
2023-03-17T17:09:37.161Z,55.37
2023-03-17T17:12:04.645Z,55.43
2023-03-17T17:14:32.009Z,55.91
2023-03-17T17:16:59.227Z,55.39
2023-03-17T17:19:26.314Z,55.96
2023-03-17T17:21:53.974Z,56.06
2023-03-17T17:24:21.402Z,56.01
2023-03-17T17:26:48.793Z,55.82
2023-03-17T17:29:16.379Z,56.21
2023-03-17T17:31:43.438Z,56.44
2023-03-17T17:34:10.812Z,56.46
2023-03-17T17:36:38.226Z,56.30
2023-03-17T17:39:06.932Z,56.78
2023-03-17T17:41:34.223Z,56.68
2023-03-17T17:44:01.457Z,56.49
2023-03-17T17:46:29.258Z,56.63
2023-03-17T17:48:57.877Z,56.71
2023-03-17T17:51:25.010Z,56.98
2023-03-17T17:53:52.092Z,56.60
2023-03-17T17:56:19.512Z,56.85
2023-03-17T17:58:46.994Z,56.88
2023-03-17T18:01:19.219Z,57.41
2023-03-17T18:03:46.598Z,57.40
2023-03-17T18:06:14.195Z,57.67
2023-03-17T18:08:43.260Z,57.56
2023-03-17T18:11:11.071Z,57.30
2023-03-17T18:13:39.888Z,57.79
2023-03-17T18:16:09.596Z,58.15
2023-03-17T18:18:40.617Z,58.03
2023-03-17T18:21:08.132Z,57.62
2023-03-17T18:23:36.141Z,58.35
2023-03-17T18:26:04.264Z,58.23
2023-03-17T18:28:31.794Z,58.10
2023-03-17T18:31:03.362Z,58.60
2023-03-17T18:33:32.045Z,58.76
2023-03-17T18:35:59.245Z,58.31
2023-03-17T18:38:26.674Z,58.91
2023-03-17T18:40:53.748Z,59.44
2023-03-17T18:43:21.030Z,59.33
2023-03-17T18:45:48.329Z,59.66
2023-03-17T18:48:15.921Z,60.05
2023-03-17T18:50:43.676Z,59.90
2023-03-17T18:53:10.909Z,60.27
2023-03-17T18:55:38.262Z,60.31
2023-03-17T18:58:06.233Z,60.34
2023-03-17T19:00:33.854Z,60.37
2023-03-17T19:03:01.174Z,60.22
2023-03-17T19:05:29.093Z,60.61
2023-03-17T19:07:56.478Z,60.21
2023-03-17T19:10:23.924Z,60.15
2023-03-17T19:12:51.888Z,60.29
2023-03-17T19:15:19.390Z,59.72
2023-03-17T19:17:47.202Z,60.08
2023-03-17T19:20:15.071Z,59.89
2023-03-17T19:22:42.533Z,59.98
2023-03-17T19:25:09.905Z,60.82
2023-03-17T19:27:37.682Z,60.71
2023-03-17T19:30:05.806Z,60.44
2023-03-17T19:32:33.715Z,60.42
2023-03-17T19:35:01.118Z,60.64
2023-03-17T19:37:29.694Z,60.48
2023-03-17T19:39:56.719Z,60.36
2023-03-17T19:42:23.887Z,60.03
2023-03-17T19:44:50.942Z,60.28
2023-03-17T19:47:18.524Z,60.20
2023-03-17T19:49:45.868Z,59.93
2023-03-17T19:52:13.399Z,60.23
2023-03-17T19:54:44.538Z,60.24
2023-03-17T19:57:13.024Z,59.90
2023-03-17T19:59:41.061Z,60.06
2023-03-17T20:02:08.525Z,60.40
2023-03-17T20:04:37.038Z,60.01
2023-03-17T20:07:04.783Z,60.11
2023-03-17T20:09:32.550Z,60.33
2023-03-17T20:11:59.870Z,60.18
2023-03-17T20:14:26.921Z,60.25
2023-03-17T20:16:54.280Z,60.31
2023-03-17T20:19:21.952Z,60.12
2023-03-17T20:21:49.196Z,60.19
2023-03-17T20:24:16.339Z,60.11
2023-03-17T20:26:44.331Z,60.24
2023-03-17T20:29:13.987Z,60.48
2023-03-17T20:31:41.854Z,60.89
2023-03-17T20:34:09.798Z,60.79
2023-03-17T20:36:37.284Z,60.56
2023-03-17T20:39:04.570Z,61.06
2023-03-17T20:41:31.995Z,61.01
2023-03-17T20:43:59.372Z,60.74
2023-03-17T20:46:26.825Z,61.16
2023-03-17T20:48:58.456Z,61.03
2023-03-17T20:51:26.141Z,61.46
2023-03-17T20:53:54.744Z,61.22
2023-03-17T20:56:23.297Z,61.46
2023-03-17T20:58:52.845Z,61.39
2023-03-17T21:01:21.460Z,61.13
2023-03-17T21:03:49.099Z,61.34
2023-03-17T21:06:16.655Z,61.85
2023-03-17T21:08:46.139Z,61.80
2023-03-17T21:11:17.594Z,61.57
2023-03-17T21:13:45.521Z,61.22
2023-03-17T21:16:19.457Z,61.39
2023-03-17T21:18:47.384Z,61.04
2023-03-17T21:21:15.287Z,61.43
2023-03-17T21:23:42.644Z,61.84
2023-03-17T21:26:10.318Z,61.39
2023-03-17T21:28:41.224Z,62.08
2023-03-17T21:31:09.754Z,61.89
2023-03-17T21:33:37.029Z,61.54
2023-03-17T21:36:05.219Z,61.89
2023-03-17T21:38:32.893Z,62.28
2023-03-17T21:41:18.382Z,62.67
2023-03-17T21:43:46.622Z,62.24
2023-03-17T21:46:14.085Z,62.38
2023-03-17T21:48:41.289Z,62.40
2023-03-17T21:51:08.457Z,62.53
2023-03-17T21:53:35.620Z,62.73
2023-03-17T21:56:03.745Z,62.78
2023-03-17T21:58:31.107Z,62.72
2023-03-17T22:01:00.286Z,62.37
2023-03-17T22:03:27.752Z,62.04
2023-03-17T22:05:56.472Z,62.37
2023-03-17T22:08:24.906Z,62.27
2023-03-17T22:10:52.141Z,62.50
2023-03-17T22:13:19.235Z,62.12
2023-03-17T22:15:46.321Z,62.80
2023-03-17T22:18:13.976Z,62.54
2023-03-17T22:20:41.370Z,63.41
2023-03-17T22:23:08.934Z,63.48
2023-03-17T22:25:36.979Z,63.17
2023-03-17T22:28:04.646Z,63.19
2023-03-17T22:30:32.166Z,62.67
2023-03-17T22:32:59.325Z,62.40
2023-03-17T22:35:27.203Z,62.50
2023-03-17T22:37:54.467Z,62.47
2023-03-17T22:40:21.600Z,62.30
2023-03-17T22:42:48.741Z,62.30
2023-03-17T22:45:16.365Z,62.46
2023-03-17T22:47:43.503Z,62.71
2023-03-17T22:50:11.622Z,62.56
2023-03-17T22:52:38.792Z,62.42
2023-03-17T22:55:07.647Z,62.78
2023-03-17T22:57:36.237Z,62.71
2023-03-17T23:00:16.466Z,63.01
2023-03-17T23:02:44.507Z,63.02
2023-03-17T23:05:13.115Z,63.03
2023-03-17T23:07:50.268Z,62.90
2023-03-17T23:10:22.682Z,63.24
2023-03-17T23:12:50.530Z,63.11
2023-03-17T23:15:18.943Z,62.80
2023-03-17T23:17:46.759Z,63.28
2023-03-17T23:20:15.210Z,63.23
2023-03-17T23:22:42.276Z,62.89
2023-03-17T23:25:10.064Z,63.22
2023-03-17T23:27:37.047Z,63.20
2023-03-17T23:30:05.692Z,63.46
2023-03-17T23:32:33.803Z,63.41
2023-03-17T23:35:01.354Z,63.32
2023-03-17T23:37:29.084Z,63.61
2023-03-17T23:39:56.654Z,63.65
2023-03-17T23:42:23.937Z,63.70
2023-03-17T23:44:51.823Z,64.14
2023-03-17T23:47:20.347Z,64.42
2023-03-17T23:49:47.392Z,64.97
2023-03-17T23:52:15.452Z,64.97
2023-03-17T23:54:43.698Z,64.75
2023-03-17T23:57:12.438Z,64.71
2023-03-17T23:59:40.490Z,64.98
